Flight Track Log - Related Links

Times and Time Zones

All times are in EDT time to prevent confusion due to time zone crossing. See the N32SB flight status page for this flight to view local times or setup timezone preferences in your user account.

Time Position Orientation Groundspeed Altitude Reporting Facility
EDT Latitude Longitude Course Direction KTS MPH feet Rate Location/Type
Sun 02:00:40 PM 37.2206 -76.5150 North 189 217 7,600  Level Washington Center
Sun 02:01:40 PM 37.2728 -76.5081 North 191 220 7,600  Level Washington Center
Sun 02:02:35 PM 37.3189 -76.5033 North 190 219 7,600  Level Washington Center
Sun 02:03:11 PM 37.3522 -76.4906 17° North 194 223 7,600  Level Washington Center
Sun 02:03:35 PM 37.3711 -76.4933 353° North 190 219 7,600  Level Washington Center
Sun 02:04:12 PM 37.4044 -76.4808 17° North 194 223 7,600  Level Washington Center
Sun 02:04:37 PM 37.4294 -76.4811 359° North 192 221 7,600  Level Washington Center
Sun 02:05:37 PM 37.4817 -76.4686 11° North 191 220 7,600  Level Washington Center
Sun 02:06:00 PM -15.8022 168.5748 North  Level Estimated
Sun 02:06:11 PM 37.5131 -76.4611 11° North 194 223 7,600  Level Washington Center
Sun 02:06:38 PM 37.5319 -76.4639 353° North 192 221 7,600  Level Washington Center
Sun 02:07:11 PM 37.5653 -76.4539 13° North 194 223 7,600  Level Washington Center
Sun 02:07:32 PM 37.5819 -76.4539 360° North 192 221 7,600  Level Washington Center
Sun 02:09:00 PM 37.6382 -76.4526 North  Level Estimated
Sun 02:11:47 PM 37.7992 -76.4064 North 154 177 7,600  Level Washington Center
Sun 02:12:47 PM 37.8514 -76.3939 11° North 176 203 7,600  Level Washington Center
Sun 02:13:48 PM 37.9100 -76.3839 North 188 216 7,600  Level Washington Center
Sun 02:14:48 PM 37.9642 -76.3767 North 193 222 7,600  Level Washington Center
Sun 02:15:46 PM 38.0164 -76.3642 11° North 193 222 7,600 -50 Level Washington Center
Sun 02:16:00 PM 37.9068 -76.4466 North  Level Estimated
Sun 02:16:47 PM 38.0706 -76.3592 North 193 222 7,500  Level Washington Center
Sun 02:17:48 PM 38.1228 -76.3519 North 193 222 7,600 50 Climbing Washington Center
Sun 02:18:46 PM 38.1769 -76.3472 North 193 222 7,600  Level Washington Center
Sun 02:19:47 PM 38.2292 -76.3319 13° North 193 222 7,600  Level Washington Center
Sun 02:20:48 PM 38.2836 -76.3217 North 193 222 7,600  Level Washington Center
Sun 02:21:48 PM 38.3378 -76.3144 North 198 228 7,600  Level Washington Center
Sun 02:22:46 PM 38.3900 -76.3017 11° North 198 228 7,600 50 Level Washington Center
Sun 02:23:47 PM 38.4422 -76.2861 13° North 198 228 7,700  Climbing Washington Center
Sun 02:24:48 PM 38.4964 -76.2733 10° North 198 228 7,600 -101 Descending Washington Center
Sun 02:25:46 PM 38.5486 -76.2553 15° North 198 228 7,500 -102 Descending Washington Center
Sun 02:26:46 PM 38.5967 -76.2450 North 198 228 7,400  Descending Washington Center
Sun 02:27:47 PM 38.6489 -76.2322 11° North 198 228 7,500 98 Climbing Washington Center
Sun 02:29:00 PM 38.6946 -76.2444 348° North  Level Estimated
Sun 02:36:00 PM 38.9576 -76.3146 348° North  Level Estimated
Sun 02:37:00 PM 38.9952 -76.3247 348° North  Level Estimated
Sun 02:38:00 PM 39.0327 -76.3347 348° North  Level Estimated
Sun 02:39:00 PM 39.0703 -76.3448 348° North  Level Estimated
Sun 02:40:00 PM 39.1078 -76.3550 348° North  Level Estimated
Sun 02:41:00 PM 39.1454 -76.3651 348° North  Level Estimated
Sun 02:42:00 PM 39.1830 -76.3752 348° North  Level Estimated
Sun 02:43:00 PM 39.2205 -76.3854 348° North  Level Estimated
Sun 02:44:00 PM 39.2581 -76.3955 348° North  Level Estimated
Sun 02:45:00 PM 39.2957 -76.4056 348° North  Level Estimated
Sun 02:46:00 PM 39.3257 -76.4138 348° North  Level Estimated
Sun 02:47:00 PM 39.3257 -76.4138 153° Southeast  Level Estimated
Sun 02:48:00 PM 39.3257 -76.4138 153° Southeast  Level Estimated
Sun 02:49:00 PM 39.3257 -76.4138 153° Southeast  Level Estimated
Sun 02:50:00 PM 39.3257 -76.4138 153° Southeast  Level Estimated
Sun 02:51:00 PM 39.3257 -76.4138 153° Southeast  Level Estimated
Sun 02:52:00 PM 39.3257 -76.4138 153° Southeast  Level Estimated
Sun 02:53:00 PM 39.3257 -76.4138 153° Southeast  Level Estimated
Sun 02:54:00 PM 39.3257 -76.4138 153° Southeast  Level Estimated
Sun 02:55:00 PM 39.3257 -76.4138 153° Southeast  Level Estimated
Sun 02:56:00 PM 39.3257 -76.4138 153° Southeast  Level Estimated
Sun 02:57:00 PM 39.3257 -76.4138 153° Southeast  Level Estimated
Sun 02:58:00 PM 39.3257 -76.4138 153° Southeast  Level Estimated
Sun 02:59:00 PM 39.3257 -76.4138 153° Southeast  Level Estimated
Sun 03:00:00 PM 39.3257 -76.4138 153° Southeast  Level Estimated
Sun 03:01:00 PM 39.3257 -76.4138 153° Southeast  Level Estimated
Sun 03:02:00 PM 39.3257 -76.4138 153° Southeast  Level Estimated
Sun 03:03:00 PM 39.3257 -76.4138 153° Southeast  Level Estimated
Sun 03:04:00 PM 39.3257 -76.4138 153° Southeast  Level Estimated
Sun 03:05:00 PM 39.3257 -76.4138 153° Southeast  Level Estimated
Sun 03:06:00 PM 39.3257 -76.4138 153° Southeast  Level Estimated
Sun 03:07:00 PM 39.3257 -76.4138 153° Southeast  Level Estimated
Sun 03:08:00 PM 39.3257 -76.4138 153° Southeast  Level Estimated
Sun 03:09:00 PM 39.3257 -76.4138 153° Southeast  Level Estimated

Login

Don't have an account? Register now (free) for customized features, flight alerts, and more!